createdAt,value
2023-02-11T00:01:27.952Z,-6.50
2023-02-11T00:03:59.080Z,-6.60
2023-02-11T00:06:29.943Z,-6.70
2023-02-11T00:09:00.551Z,-6.60
2023-02-11T00:11:30.873Z,-6.50
2023-02-11T00:14:06.357Z,-6.40
2023-02-11T00:16:33.709Z,-6.50
2023-02-11T00:19:01.589Z,-6.40
2023-02-11T00:21:29.194Z,-6.40
2023-02-11T00:24:00.166Z,-6.50
2023-02-11T00:26:35.066Z,-6.70
2023-02-11T00:29:02.703Z,-6.70
2023-02-11T00:31:33.331Z,-6.70
2023-02-11T00:34:03.789Z,-6.60
2023-02-11T00:36:31.416Z,-6.60
2023-02-11T00:39:01.704Z,-6.50
2023-02-11T00:41:29.157Z,-6.70
2023-02-11T00:43:56.263Z,-6.80
2023-02-11T00:46:23.549Z,-7.10
2023-02-11T00:48:52.095Z,-7.20
2023-02-11T00:51:19.382Z,-7.30
2023-02-11T00:53:46.819Z,-7.30
2023-02-11T00:56:14.259Z,-7.20
2023-02-11T00:58:41.703Z,-7.10
2023-02-11T01:01:09.194Z,-7.30
2023-02-11T01:03:36.383Z,-7.20
2023-02-11T01:06:04.808Z,-6.70
2023-02-11T01:08:33.698Z,-7.00
2023-02-11T01:11:06.608Z,-6.80
2023-02-11T01:13:35.174Z,-6.90
2023-02-11T01:16:02.412Z,-6.80
2023-02-11T01:18:30.138Z,-6.90
2023-02-11T01:20:57.348Z,-6.80
2023-02-11T01:23:24.877Z,-6.80
2023-02-11T01:25:52.476Z,-6.90
2023-02-11T01:28:21.557Z,-7.30
2023-02-11T01:30:49.172Z,-7.20
2023-02-11T01:33:16.635Z,-7.20
2023-02-11T01:35:44.355Z,-7.20
2023-02-11T01:38:23.170Z,-7.00
2023-02-11T01:41:01.441Z,-7.20
2023-02-11T01:43:31.198Z,-7.10
2023-02-11T01:46:00.023Z,-7.10
2023-02-11T01:48:42.009Z,-7.10
2023-02-11T01:51:25.194Z,-7.10
2023-02-11T01:54:11.114Z,-7.00
2023-02-11T01:56:58.869Z,-6.90
2023-02-11T01:59:32.788Z,-7.30
2023-02-11T02:02:04.059Z,-7.40
2023-02-11T02:04:33.746Z,-7.30
2023-02-11T02:07:04.630Z,-7.20
2023-02-11T02:09:34.428Z,-7.30
2023-02-11T02:12:02.553Z,-7.20
2023-02-11T02:14:29.925Z,-7.20
2023-02-11T02:16:57.078Z,-7.10
2023-02-11T02:19:58.559Z,-6.90
2023-02-11T02:22:53.413Z,-7.00
2023-02-11T02:25:39.741Z,-7.10
2023-02-11T02:28:31.042Z,-7.10
2023-02-11T02:31:25.749Z,-7.20
2023-02-11T02:34:16.874Z,-7.00
2023-02-11T02:37:15.926Z,-7.00
2023-02-11T02:39:43.355Z,-6.80
2023-02-11T02:42:10.705Z,-6.80
2023-02-11T02:44:38.257Z,-6.90
2023-02-11T02:47:05.913Z,-6.80
2023-02-11T02:49:33.228Z,-7.10
2023-02-11T02:52:18.320Z,-7.10
2023-02-11T02:54:48.414Z,-7.10
2023-02-11T02:57:52.759Z,-7.10
2023-02-11T03:00:38.398Z,-7.10
2023-02-11T03:03:27.195Z,-7.10
2023-02-11T03:06:08.704Z,-7.00
2023-02-11T03:08:40.483Z,-7.00
2023-02-11T03:11:07.957Z,-7.10
2023-02-11T03:13:36.336Z,-7.10
2023-02-11T03:16:27.485Z,-6.80
2023-02-11T03:19:01.708Z,-6.90
2023-02-11T03:21:29.592Z,-7.10
2023-02-11T03:24:03.302Z,-7.20
2023-02-11T03:26:31.411Z,-7.20
2023-02-11T03:29:06.651Z,-7.30
2023-02-11T03:31:57.067Z,-7.00
2023-02-11T03:34:34.178Z,-6.90
2023-02-11T03:37:02.833Z,-6.80
2023-02-11T03:39:40.140Z,-6.80
2023-02-11T03:42:08.131Z,-6.60
2023-02-11T03:44:45.112Z,-6.60
2023-02-11T03:47:13.057Z,-6.80
2023-02-11T03:49:40.450Z,-7.00
2023-02-11T03:52:08.029Z,-6.80
2023-02-11T03:54:35.207Z,-6.60
2023-02-11T03:57:02.814Z,-6.60
2023-02-11T03:59:30.260Z,-6.40
2023-02-11T04:01:59.873Z,-6.50
2023-02-11T04:04:27.335Z,-6.40
2023-02-11T04:06:54.526Z,-6.50
2023-02-11T04:09:22.029Z,-6.30
2023-02-11T04:11:49.211Z,-6.10
2023-02-11T04:14:16.630Z,-6.00
2023-02-11T04:16:44.302Z,-5.80
2023-02-11T04:19:11.913Z,-5.70
2023-02-11T04:21:39.665Z,-5.70
2023-02-11T04:24:06.870Z,-5.80
2023-02-11T04:26:34.437Z,-5.90
2023-02-11T04:29:02.162Z,-5.90
2023-02-11T04:31:29.941Z,-5.90
2023-02-11T04:33:57.196Z,-5.90
2023-02-11T04:36:24.647Z,-5.80
2023-02-11T04:38:51.715Z,-5.80
2023-02-11T04:41:19.304Z,-5.90
2023-02-11T04:43:46.529Z,-6.20
2023-02-11T04:46:13.865Z,-6.10
2023-02-11T04:48:41.613Z,-5.80
2023-02-11T04:51:08.945Z,-5.60
2023-02-11T04:53:36.113Z,-5.60
2023-02-11T04:56:03.222Z,-5.50
2023-02-11T04:58:30.546Z,-5.30
2023-02-11T05:01:11.983Z,-5.20
2023-02-11T05:03:39.638Z,-5.10
2023-02-11T05:06:07.593Z,-4.90
2023-02-11T05:08:35.114Z,-4.60
2023-02-11T05:11:02.619Z,-4.40
2023-02-11T05:13:30.091Z,-4.20
2023-02-11T05:15:57.581Z,-3.90
2023-02-11T05:18:24.852Z,-3.90
2023-02-11T05:20:52.383Z,-4.10
2023-02-11T05:23:20.521Z,-4.20
2023-02-11T05:25:48.501Z,-4.20
2023-02-11T05:28:16.131Z,-4.20
2023-02-11T05:30:43.662Z,-4.10
2023-02-11T05:33:11.114Z,-4.10
2023-02-11T05:35:38.622Z,-4.10
2023-02-11T05:38:06.324Z,-4.10
2023-02-11T05:40:33.782Z,-3.80
2023-02-11T05:43:01.230Z,-3.70
2023-02-11T05:45:28.726Z,-3.70
2023-02-11T05:47:56.519Z,-3.60
2023-02-11T05:50:25.860Z,-3.40
2023-02-11T05:52:53.087Z,-3.10
2023-02-11T05:55:20.623Z,-2.90
2023-02-11T05:57:47.850Z,-2.80
2023-02-11T06:00:15.963Z,-2.60
2023-02-11T06:02:43.329Z,-2.40
2023-02-11T06:05:11.110Z,-2.30
2023-02-11T06:07:38.403Z,-2.20
2023-02-11T06:10:06.194Z,-2.10
2023-02-11T06:12:33.913Z,-2.00
2023-02-11T06:15:01.308Z,-1.90
2023-02-11T06:17:33.228Z,-1.80
2023-02-11T06:20:01.149Z,-1.70
2023-02-11T06:22:29.382Z,-1.70
2023-02-11T06:25:02.092Z,-1.50
2023-02-11T06:27:30.955Z,-1.50
2023-02-11T06:29:58.303Z,-1.40
2023-02-11T06:35:14.952Z,-1.30
2023-02-11T06:37:42.734Z,-1.20
2023-02-11T06:40:11.447Z,-1.30
2023-02-11T06:42:39.756Z,-1.20
2023-02-11T06:45:09.753Z,-1.20
2023-02-11T06:47:40.648Z,-1.10
2023-02-11T06:50:09.024Z,-1.20
2023-02-11T06:52:37.927Z,-1.00
2023-02-11T06:55:05.618Z,-1.00
2023-02-11T06:57:36.131Z,-0.90
2023-02-11T07:00:05.582Z,-0.90
2023-02-11T07:02:33.379Z,-0.80
2023-02-11T07:05:00.874Z,-0.80
2023-02-11T07:07:28.090Z,-0.70
2023-02-11T07:09:55.459Z,-0.60
2023-02-11T07:12:23.317Z,-0.50
2023-02-11T07:14:50.667Z,-0.50
2023-02-11T07:17:18.064Z,-0.50
2023-02-11T07:19:45.385Z,-0.50
2023-02-11T07:22:13.025Z,-0.40
2023-02-11T07:24:40.426Z,-0.40
2023-02-11T07:27:07.693Z,-0.30
2023-02-11T07:29:35.471Z,-0.30
2023-02-11T07:32:02.940Z,-0.20
2023-02-11T07:34:30.867Z,-0.20
2023-02-11T07:36:58.442Z,-0.10
2023-02-11T07:39:28.002Z,0.00
2023-02-11T07:41:55.566Z,0.00
2023-02-11T07:44:23.047Z,0.10
2023-02-11T07:46:50.218Z,0.10
2023-02-11T07:49:17.520Z,0.10
2023-02-11T07:51:45.120Z,0.10
2023-02-11T07:54:12.625Z,0.20
2023-02-11T07:56:40.020Z,0.20
2023-02-11T07:59:07.504Z,0.30
2023-02-11T08:01:35.000Z,0.30
2023-02-11T08:04:02.688Z,0.40
2023-02-11T08:06:31.885Z,0.40
2023-02-11T08:09:03.257Z,0.40
2023-02-11T08:11:30.904Z,0.50
2023-02-11T08:13:58.562Z,0.50
2023-02-11T08:16:30.396Z,0.50
2023-02-11T08:18:59.289Z,0.60
2023-02-11T08:21:26.741Z,0.60
2023-02-11T08:23:54.318Z,0.60
2023-02-11T08:26:26.556Z,0.80
2023-02-11T08:28:54.677Z,0.90
2023-02-11T08:31:24.138Z,1.00
2023-02-11T08:33:52.006Z,1.00
2023-02-11T08:36:23.625Z,1.10
2023-02-11T08:38:51.307Z,1.10
2023-02-11T08:41:19.009Z,1.10
2023-02-11T08:43:46.380Z,1.30
2023-02-11T08:46:15.788Z,1.40
2023-02-11T08:48:43.763Z,1.50
2023-02-11T08:51:13.663Z,1.60
2023-02-11T08:53:41.277Z,1.60
2023-02-11T08:56:12.173Z,1.60
2023-02-11T08:58:40.895Z,1.60
2023-02-11T09:01:16.718Z,1.60
2023-02-11T09:03:44.195Z,1.60
2023-02-11T09:06:11.745Z,1.70
2023-02-11T09:08:39.867Z,1.60
2023-02-11T09:11:07.402Z,1.70
2023-02-11T09:13:34.720Z,1.70
2023-02-11T09:16:02.287Z,1.70
2023-02-11T09:18:29.901Z,1.80
2023-02-11T09:21:05.158Z,1.90
2023-02-11T09:23:34.563Z,1.90
2023-02-11T09:26:09.226Z,1.90
2023-02-11T09:28:37.360Z,2.00
2023-02-11T09:31:09.088Z,2.00
2023-02-11T09:33:36.429Z,2.20
2023-02-11T09:36:05.777Z,2.30
2023-02-11T09:38:33.923Z,2.40
2023-02-11T09:41:04.367Z,2.30
2023-02-11T09:43:39.832Z,2.40
2023-02-11T09:46:07.138Z,2.30
2023-02-11T09:48:40.429Z,2.40
2023-02-11T09:51:08.313Z,2.30
2023-02-11T09:53:37.885Z,2.30
2023-02-11T09:56:14.852Z,2.40
2023-02-11T09:58:43.555Z,2.50
2023-02-11T10:01:26.154Z,2.50
2023-02-11T10:03:56.413Z,2.50
2023-02-11T10:06:52.405Z,2.50
2023-02-11T10:09:26.142Z,2.50
2023-02-11T10:12:15.374Z,2.60
2023-02-11T10:14:48.488Z,2.70
2023-02-11T10:17:16.199Z,2.70
2023-02-11T10:19:49.388Z,2.70
2023-02-11T10:22:43.759Z,2.80
2023-02-11T10:25:29.365Z,2.80
2023-02-11T10:27:59.395Z,2.80
2023-02-11T10:30:38.855Z,2.90
2023-02-11T10:33:25.004Z,2.90
2023-02-11T10:35:53.028Z,2.80
2023-02-11T10:38:20.862Z,2.90
2023-02-11T10:40:48.501Z,2.90
2023-02-11T10:43:26.085Z,2.80
2023-02-11T10:45:54.331Z,2.90
2023-02-11T10:48:40.241Z,3.00
2023-02-11T10:51:28.729Z,3.00
2023-02-11T10:54:05.623Z,3.20
2023-02-11T10:56:37.955Z,3.10
2023-02-11T10:59:24.139Z,3.20
2023-02-11T11:02:00.922Z,3.10
2023-02-11T11:04:35.728Z,3.40
2023-02-11T11:07:29.156Z,3.10
2023-02-11T11:10:03.099Z,3.10
2023-02-11T11:12:36.659Z,3.00
2023-02-11T11:15:22.121Z,3.00
2023-02-11T11:17:50.653Z,3.00
2023-02-11T11:20:22.996Z,2.90
2023-02-11T11:22:55.817Z,3.00
2023-02-11T11:25:27.987Z,3.00
2023-02-11T11:27:57.866Z,2.90
2023-02-11T11:30:40.176Z,2.90
2023-02-11T11:33:18.881Z,2.90
2023-02-11T11:35:53.726Z,3.00
2023-02-11T11:38:21.427Z,3.00
2023-02-11T11:40:49.031Z,2.90
2023-02-11T11:43:23.115Z,3.10
2023-02-11T11:45:58.599Z,3.30
2023-02-11T11:48:28.046Z,3.40
2023-02-11T11:51:03.066Z,3.40
2023-02-11T11:53:45.914Z,3.20
2023-02-11T11:56:26.814Z,3.30
2023-02-11T11:58:54.670Z,3.30
2023-02-11T12:01:43.797Z,3.10
2023-02-11T12:04:45.712Z,3.00
2023-02-11T12:07:26.044Z,3.10
2023-02-11T12:10:15.523Z,3.10
2023-02-11T12:13:14.813Z,3.20
2023-02-11T12:15:48.003Z,3.20
2023-02-11T12:18:33.854Z,3.30
2023-02-11T12:21:13.486Z,3.30
2023-02-11T12:24:05.045Z,3.20
2023-02-11T12:26:45.436Z,3.20
2023-02-11T12:29:24.951Z,3.20
2023-02-11T12:32:18.829Z,3.30
2023-02-11T12:35:07.998Z,3.30
2023-02-11T12:37:39.080Z,3.40
2023-02-11T12:40:30.101Z,3.20
2023-02-11T12:43:18.618Z,3.10
2023-02-11T12:46:03.076Z,3.10
2023-02-11T12:49:18.461Z,3.20
2023-02-11T12:52:11.332Z,3.30
2023-02-11T12:55:16.568Z,3.20
2023-02-11T12:57:44.152Z,3.30
2023-02-11T13:00:19.610Z,3.30
2023-02-11T13:03:07.500Z,3.30
2023-02-11T13:05:43.638Z,3.40
2023-02-11T13:08:40.576Z,3.40
2023-02-11T13:11:14.346Z,3.30
2023-02-11T13:14:02.698Z,3.40
2023-02-11T13:16:39.647Z,3.30
2023-02-11T13:19:21.701Z,3.40
2023-02-11T13:21:56.418Z,3.20
2023-02-11T13:24:44.707Z,3.30
2023-02-11T13:27:37.364Z,3.30
2023-02-11T13:30:27.694Z,3.30
2023-02-11T13:32:56.097Z,3.10
2023-02-11T13:35:37.237Z,3.10
2023-02-11T13:38:34.082Z,3.20
2023-02-11T13:41:21.614Z,3.20
2023-02-11T13:43:59.079Z,3.20
2023-02-11T13:46:26.640Z,3.20
2023-02-11T13:48:54.051Z,3.30
2023-02-11T13:51:36.779Z,3.30
2023-02-11T13:54:04.789Z,3.40
2023-02-11T13:56:37.260Z,3.40
2023-02-11T13:59:34.060Z,3.40
2023-02-11T14:02:21.557Z,3.40
2023-02-11T14:05:25.501Z,3.50
2023-02-11T14:08:29.338Z,3.40
2023-02-11T14:11:13.368Z,3.40
2023-02-11T14:13:49.904Z,3.40
2023-02-11T14:16:36.914Z,3.40
2023-02-11T14:19:06.851Z,3.50
2023-02-11T14:21:45.982Z,3.50
2023-02-11T14:24:13.652Z,3.40
2023-02-11T14:27:02.247Z,3.40
2023-02-11T14:29:52.870Z,3.40
2023-02-11T14:32:46.055Z,3.60
2023-02-11T14:35:33.435Z,3.60
2023-02-11T14:38:29.029Z,3.50
2023-02-11T14:41:05.627Z,3.30
2023-02-11T14:43:40.358Z,3.30
2023-02-11T14:46:07.873Z,3.40
2023-02-11T14:48:37.910Z,3.20
2023-02-11T14:51:18.518Z,3.20
2023-02-11T14:53:48.456Z,3.20
2023-02-11T14:56:22.164Z,3.10
2023-02-11T14:58:52.211Z,3.30
2023-02-11T15:01:38.581Z,3.30
2023-02-11T15:04:06.894Z,3.30
2023-02-11T15:06:35.137Z,3.30
2023-02-11T15:09:18.303Z,3.30
2023-02-11T15:11:49.145Z,3.20
2023-02-11T15:14:26.804Z,3.20
2023-02-11T15:16:55.579Z,3.10
2023-02-11T15:19:39.754Z,3.00
2023-02-11T15:22:19.032Z,3.10
2023-02-11T15:24:47.108Z,3.10
2023-02-11T15:27:16.440Z,3.10
2023-02-11T15:29:49.934Z,3.10
2023-02-11T15:32:25.047Z,3.10
2023-02-11T15:34:54.170Z,3.10
2023-02-11T15:37:30.086Z,3.10
2023-02-11T15:40:12.411Z,3.00
2023-02-11T15:42:52.140Z,3.00
2023-02-11T15:45:21.125Z,3.00
2023-02-11T15:47:56.881Z,2.90
2023-02-11T15:50:29.761Z,2.90
2023-02-11T15:52:58.833Z,2.80
2023-02-11T15:55:29.156Z,2.90
2023-02-11T15:57:58.371Z,2.80
2023-02-11T16:00:32.962Z,2.80
2023-02-11T16:03:00.332Z,2.80
2023-02-11T16:05:29.344Z,2.80
2023-02-11T16:07:57.608Z,2.80
2023-02-11T16:10:27.423Z,2.80
2023-02-11T16:12:59.582Z,2.80
2023-02-11T16:15:33.924Z,2.70
2023-02-11T16:18:16.126Z,2.70
2023-02-11T16:20:48.229Z,2.80
2023-02-11T16:23:20.873Z,2.70
2023-02-11T16:25:48.364Z,2.60
2023-02-11T16:28:16.327Z,2.50
2023-02-11T16:30:43.857Z,2.60
2023-02-11T16:33:11.927Z,2.50
2023-02-11T16:35:39.415Z,2.50
2023-02-11T16:38:06.653Z,2.60
2023-02-11T16:40:33.940Z,2.50
2023-02-11T16:43:01.463Z,2.50
2023-02-11T16:45:28.684Z,2.50
2023-02-11T16:47:56.187Z,2.50
2023-02-11T16:50:25.220Z,2.60
2023-02-11T16:52:55.199Z,2.40
2023-02-11T16:55:22.625Z,2.50
2023-02-11T16:57:50.164Z,2.30
2023-02-11T17:00:17.873Z,2.30
2023-02-11T17:02:45.420Z,2.40
2023-02-11T17:05:21.307Z,2.40
2023-02-11T17:07:49.244Z,2.40
2023-02-11T17:10:21.643Z,2.40
2023-02-11T17:12:50.394Z,2.50
2023-02-11T17:15:17.709Z,2.50
2023-02-11T17:17:46.425Z,2.50
2023-02-11T17:20:14.498Z,2.40
2023-02-11T17:22:42.218Z,2.40
2023-02-11T17:25:09.937Z,2.40
2023-02-11T17:27:37.310Z,2.40
2023-02-11T17:30:05.823Z,2.30
2023-02-11T17:32:32.957Z,2.30
2023-02-11T17:35:00.274Z,2.40
2023-02-11T17:37:27.478Z,2.40
2023-02-11T17:39:55.508Z,2.30
2023-02-11T17:42:22.757Z,2.50
2023-02-11T17:44:50.014Z,2.40
2023-02-11T17:47:17.539Z,2.50
2023-02-11T17:49:44.714Z,2.40
2023-02-11T17:52:12.362Z,2.40
2023-02-11T17:54:40.420Z,2.40
2023-02-11T17:57:08.140Z,2.40
2023-02-11T17:59:35.965Z,2.40
2023-02-11T18:02:04.107Z,2.40
2023-02-11T18:04:32.247Z,2.40
2023-02-11T18:06:59.962Z,2.40
2023-02-11T18:09:27.608Z,2.50
2023-02-11T18:11:55.289Z,2.50
2023-02-11T18:14:23.056Z,2.50
2023-02-11T18:16:52.340Z,2.50
2023-02-11T18:19:20.089Z,2.60
2023-02-11T18:21:50.515Z,2.60
2023-02-11T18:24:18.031Z,2.60
2023-02-11T18:26:45.210Z,2.50
2023-02-11T18:29:12.450Z,2.50
2023-02-11T18:31:40.385Z,2.50
2023-02-11T18:34:08.473Z,2.40
2023-02-11T18:36:36.548Z,2.50
2023-02-11T18:39:05.198Z,2.50
2023-02-11T18:41:32.478Z,2.40
2023-02-11T18:44:03.381Z,2.50
2023-02-11T18:46:31.915Z,2.40
2023-02-11T18:48:59.440Z,2.40
2023-02-11T18:51:26.993Z,2.40
2023-02-11T18:53:54.974Z,2.50
2023-02-11T18:56:23.607Z,2.50
2023-02-11T18:58:52.171Z,2.60
2023-02-11T19:01:21.559Z,2.60
2023-02-11T19:03:48.859Z,2.60
2023-02-11T19:06:27.985Z,2.60
2023-02-11T19:08:59.415Z,2.70
2023-02-11T19:11:46.696Z,2.60
2023-02-11T19:14:27.993Z,2.60
2023-02-11T19:16:56.657Z,2.60
2023-02-11T19:19:28.377Z,2.60
2023-02-11T19:21:55.688Z,2.70
2023-02-11T19:24:23.269Z,2.70
2023-02-11T19:26:51.492Z,2.60
2023-02-11T19:29:18.985Z,2.60
2023-02-11T19:31:47.118Z,2.50
2023-02-11T19:34:15.691Z,2.60
2023-02-11T19:36:43.294Z,2.60
2023-02-11T19:39:10.517Z,2.60
2023-02-11T19:41:38.063Z,2.60
2023-02-11T19:44:06.222Z,2.80
2023-02-11T19:46:36.489Z,2.80
2023-02-11T19:49:04.562Z,2.80
2023-02-11T19:51:33.901Z,2.70
2023-02-11T19:54:01.312Z,2.80
2023-02-11T19:56:28.940Z,2.70
2023-02-11T19:58:56.736Z,2.80
2023-02-11T20:01:24.833Z,2.60
2023-02-11T20:03:53.191Z,2.70
2023-02-11T20:06:23.766Z,2.70
2023-02-11T20:09:07.683Z,2.70
2023-02-11T20:11:36.082Z,2.70
2023-02-11T20:14:03.936Z,2.70
2023-02-11T20:16:46.905Z,2.80
2023-02-11T20:19:20.906Z,2.70
2023-02-11T20:21:49.445Z,2.80
2023-02-11T20:24:17.932Z,2.80
2023-02-11T20:26:47.023Z,2.80
2023-02-11T20:29:15.798Z,2.70
2023-02-11T20:31:43.406Z,2.70
2023-02-11T20:34:11.213Z,2.70
2023-02-11T20:36:40.727Z,2.60
2023-02-11T20:39:08.569Z,2.60
2023-02-11T20:41:36.814Z,2.50
2023-02-11T20:44:05.984Z,2.60
2023-02-11T20:46:33.888Z,2.60
2023-02-11T20:49:01.898Z,2.60
2023-02-11T20:51:31.102Z,2.60
2023-02-11T20:53:58.297Z,2.60
2023-02-11T20:56:35.959Z,2.60
2023-02-11T20:59:04.421Z,2.60
2023-02-11T21:01:43.856Z,2.60
2023-02-11T21:04:18.820Z,2.70
2023-02-11T21:06:47.783Z,2.80
2023-02-11T21:09:17.711Z,2.70
2023-02-11T21:11:45.368Z,2.60
2023-02-11T21:14:13.112Z,2.70
2023-02-11T21:16:40.709Z,2.70
2023-02-11T21:19:08.314Z,2.80
2023-02-11T21:21:36.809Z,2.80
2023-02-11T21:24:05.672Z,2.80
2023-02-11T21:26:33.280Z,2.80
2023-02-11T21:29:00.445Z,2.70
2023-02-11T21:31:30.023Z,2.80
2023-02-11T21:33:59.690Z,2.70
2023-02-11T21:36:28.028Z,2.80
2023-02-11T21:38:55.265Z,2.80
2023-02-11T21:41:22.899Z,2.70
2023-02-11T21:43:50.583Z,2.70
2023-02-11T21:46:18.038Z,2.80
2023-02-11T21:48:45.612Z,2.90
2023-02-11T21:51:21.123Z,2.80
2023-02-11T21:53:48.541Z,2.90
2023-02-11T21:56:17.431Z,2.90
2023-02-11T21:58:45.153Z,2.80
2023-02-11T22:01:14.341Z,2.80
2023-02-11T22:03:41.813Z,2.80
2023-02-11T22:06:14.039Z,2.80
2023-02-11T22:08:41.603Z,2.90
2023-02-11T22:11:10.712Z,2.90
2023-02-11T22:13:38.296Z,2.90
2023-02-11T22:16:07.290Z,2.90
2023-02-11T22:18:34.699Z,2.90
2023-02-11T22:21:12.745Z,2.90
2023-02-11T22:23:40.303Z,2.90
2023-02-11T22:26:12.744Z,2.90
2023-02-11T22:28:41.145Z,3.00
2023-02-11T22:31:12.293Z,2.90
2023-02-11T22:33:39.635Z,2.90
2023-02-11T22:36:09.438Z,2.90
2023-02-11T22:38:36.660Z,2.90
2023-02-11T22:41:08.379Z,2.90
2023-02-11T22:43:35.894Z,2.90
2023-02-11T22:46:04.226Z,2.90
2023-02-11T22:48:31.755Z,3.00
2023-02-11T22:51:07.889Z,3.00
2023-02-11T22:53:35.079Z,2.90
2023-02-11T22:56:04.646Z,2.90
2023-02-11T22:58:32.122Z,2.90
2023-02-11T23:00:59.478Z,2.90
2023-02-11T23:03:26.816Z,3.00
2023-02-11T23:05:54.775Z,2.90
2023-02-11T23:08:22.378Z,2.90
2023-02-11T23:10:49.740Z,2.90
2023-02-11T23:13:17.221Z,3.00
2023-02-11T23:15:45.161Z,3.00
2023-02-11T23:18:12.549Z,3.00
2023-02-11T23:20:41.566Z,3.10
2023-02-11T23:23:08.999Z,3.00
2023-02-11T23:25:36.254Z,2.90
2023-02-11T23:28:04.233Z,2.90
2023-02-11T23:30:31.549Z,2.90
2023-02-11T23:32:58.977Z,2.80
2023-02-11T23:35:26.341Z,2.90
2023-02-11T23:37:53.632Z,2.90
2023-02-11T23:40:21.425Z,3.00
2023-02-11T23:42:49.311Z,3.00
2023-02-11T23:45:16.603Z,3.00
2023-02-11T23:47:44.142Z,3.00
2023-02-11T23:50:11.848Z,3.00
2023-02-11T23:52:39.114Z,3.00
2023-02-11T23:55:06.637Z,2.90
2023-02-11T23:57:34.116Z,3.00
